createdAt,value
2023-02-13T00:00:21.567Z,10.87
2023-02-13T00:02:48.268Z,10.70
2023-02-13T00:05:15.161Z,9.70
2023-02-13T00:07:41.885Z,10.50
2023-02-13T00:10:09.437Z,9.20
2023-02-13T00:12:36.421Z,10.50
2023-02-13T00:15:04.558Z,9.00
2023-02-13T00:17:32.157Z,10.07
2023-02-13T00:19:58.814Z,10.17
2023-02-13T00:22:25.544Z,10.37
2023-02-13T00:24:52.188Z,10.10
2023-02-13T00:27:19.133Z,10.23
2023-02-13T00:29:45.835Z,11.73
2023-02-13T00:32:14.513Z,11.50
2023-02-13T00:34:41.320Z,11.40
2023-02-13T00:37:08.061Z,11.50
2023-02-13T00:39:34.746Z,11.07
2023-02-13T00:42:01.426Z,10.80
2023-02-13T00:44:28.198Z,10.43
2023-02-13T00:46:54.920Z,8.63
2023-02-13T00:49:23.405Z,9.70
2023-02-13T00:51:50.201Z,8.60
2023-02-13T00:54:16.917Z,8.87
2023-02-13T00:56:44.104Z,9.57
2023-02-13T00:59:13.116Z,10.37
2023-02-13T01:01:40.290Z,8.50
2023-02-13T01:04:07.048Z,9.40
2023-02-13T01:06:34.242Z,8.50
2023-02-13T01:09:02.285Z,9.20
2023-02-13T01:11:28.951Z,8.13
2023-02-13T01:13:55.646Z,8.23
2023-02-13T01:16:22.388Z,7.57
2023-02-13T01:18:49.052Z,7.70
2023-02-13T01:21:18.381Z,8.20
2023-02-13T01:23:45.838Z,7.80
2023-02-13T01:26:19.142Z,7.60
2023-02-13T01:28:46.480Z,8.57
2023-02-13T01:31:13.695Z,7.80
2023-02-13T01:33:40.457Z,7.83
2023-02-13T01:36:11.973Z,8.30
2023-02-13T01:38:38.717Z,8.10
2023-02-13T01:41:05.566Z,7.70
2023-02-13T01:43:44.198Z,7.80
2023-02-13T01:46:12.648Z,7.30
2023-02-13T01:48:39.346Z,8.70
2023-02-13T01:51:13.004Z,7.93
2023-02-13T01:53:59.710Z,7.60
2023-02-13T01:56:41.497Z,7.73
2023-02-13T01:59:18.374Z,8.87
2023-02-13T02:01:45.447Z,7.97
2023-02-13T02:04:38.513Z,8.10
2023-02-13T02:07:30.634Z,8.60
2023-02-13T02:10:07.197Z,7.57
2023-02-13T02:13:04.711Z,6.90
2023-02-13T02:15:31.593Z,8.50
2023-02-13T02:17:58.386Z,8.67
2023-02-13T02:20:31.104Z,9.30
2023-02-13T02:23:28.371Z,8.67
2023-02-13T02:26:21.244Z,7.43
2023-02-13T02:29:03.093Z,8.40
2023-02-13T02:32:15.495Z,8.87
2023-02-13T02:35:19.885Z,8.07
2023-02-13T02:38:07.503Z,8.27
2023-02-13T02:40:52.998Z,8.93
2023-02-13T02:43:43.223Z,8.00
2023-02-13T02:46:09.868Z,9.70
2023-02-13T02:49:15.437Z,8.50
2023-02-13T02:51:54.790Z,9.20
2023-02-13T02:54:45.827Z,10.00
2023-02-13T02:57:24.516Z,8.87
2023-02-13T03:00:16.701Z,9.80
2023-02-13T03:03:02.209Z,8.10
2023-02-13T03:05:50.272Z,9.63
2023-02-13T03:08:38.471Z,8.87
2023-02-13T03:11:24.962Z,8.70
2023-02-13T03:13:53.142Z,9.40
2023-02-13T03:16:42.163Z,10.27
2023-02-13T03:20:01.897Z,9.23
2023-02-13T03:22:32.692Z,10.10
2023-02-13T03:25:05.969Z,11.30
2023-02-13T03:28:09.621Z,9.37
2023-02-13T03:30:51.552Z,10.70
2023-02-13T03:33:43.749Z,10.43
2023-02-13T03:36:43.897Z,10.47
2023-02-13T03:39:39.883Z,9.50
2023-02-13T03:42:47.159Z,10.10
2023-02-13T03:45:41.193Z,11.07
2023-02-13T03:48:30.433Z,10.73
2023-02-13T03:51:00.258Z,10.97
2023-02-13T03:53:30.305Z,11.33
2023-02-13T03:56:17.349Z,11.67
2023-02-13T03:59:07.178Z,10.23
2023-02-13T04:01:36.814Z,12.27
2023-02-13T04:04:17.104Z,10.87
2023-02-13T04:07:03.788Z,11.40
2023-02-13T04:09:33.367Z,10.93
2023-02-13T04:12:24.765Z,11.30
2023-02-13T04:15:10.800Z,11.50
2023-02-13T04:17:45.132Z,11.60
2023-02-13T04:20:12.606Z,10.07
2023-02-13T04:22:44.019Z,11.37
2023-02-13T04:25:16.633Z,12.77
2023-02-13T04:27:43.374Z,12.40
2023-02-13T04:30:10.683Z,11.60
2023-02-13T04:32:37.348Z,11.70
2023-02-13T04:35:04.552Z,12.30
2023-02-13T04:37:31.214Z,11.17
2023-02-13T04:39:57.885Z,12.60
2023-02-13T04:42:24.592Z,11.70
2023-02-13T04:44:51.250Z,11.07
2023-02-13T04:47:17.909Z,10.90
2023-02-13T04:49:44.593Z,12.00
2023-02-13T04:52:11.520Z,12.17
2023-02-13T04:54:38.178Z,11.33
2023-02-13T04:57:04.835Z,12.13
2023-02-13T04:59:31.625Z,10.63
2023-02-13T05:01:59.196Z,12.63
2023-02-13T05:04:26.084Z,12.27
2023-02-13T05:06:52.785Z,12.20
2023-02-13T05:09:19.417Z,12.43
2023-02-13T05:11:46.330Z,11.13
2023-02-13T05:14:13.324Z,12.70
2023-02-13T05:16:39.977Z,12.27
2023-02-13T05:19:06.644Z,11.97
2023-02-13T05:21:52.165Z,11.40
2023-02-13T05:24:20.532Z,11.23
2023-02-13T05:26:47.426Z,13.03
2023-02-13T05:29:18.585Z,13.30
2023-02-13T05:31:49.843Z,12.07
2023-02-13T05:34:16.952Z,13.57
2023-02-13T05:36:44.005Z,11.77
2023-02-13T05:39:10.707Z,11.57
2023-02-13T05:41:37.499Z,12.77
2023-02-13T05:44:04.612Z,11.77
2023-02-13T05:46:31.833Z,11.53
2023-02-13T05:48:58.531Z,12.70
2023-02-13T05:51:25.433Z,11.77
2023-02-13T05:53:52.199Z,12.63
2023-02-13T05:56:18.880Z,14.00
2023-02-13T05:58:45.605Z,11.93
2023-02-13T06:01:12.382Z,12.07
2023-02-13T06:03:40.317Z,11.67
2023-02-13T06:06:07.514Z,12.30
2023-02-13T06:08:34.616Z,10.70
2023-02-13T06:11:01.764Z,12.63
2023-02-13T06:13:28.798Z,13.97
2023-02-13T06:15:55.480Z,12.50
2023-02-13T06:18:22.493Z,12.63
2023-02-13T06:20:49.585Z,12.13
2023-02-13T06:23:16.819Z,13.33
2023-02-13T06:25:43.943Z,13.17
2023-02-13T06:28:10.645Z,13.27
2023-02-13T06:30:37.403Z,13.50
2023-02-13T06:33:04.096Z,13.70
2023-02-13T06:35:30.861Z,13.37
2023-02-13T06:37:57.549Z,13.40
2023-02-13T06:40:24.191Z,13.40
2023-02-13T06:42:50.866Z,14.37
2023-02-13T06:45:17.641Z,13.27
2023-02-13T06:47:45.993Z,14.03
2023-02-13T06:50:14.475Z,13.63
2023-02-13T06:52:46.695Z,14.03
2023-02-13T06:55:13.986Z,13.60
2023-02-13T06:57:41.728Z,12.90
2023-02-13T07:00:13.056Z,13.90
2023-02-13T07:02:43.826Z,14.63
2023-02-13T07:05:11.566Z,14.10
2023-02-13T07:07:40.292Z,14.50
2023-02-13T07:10:10.393Z,13.60
2023-02-13T07:12:37.808Z,13.30
2023-02-13T07:15:05.610Z,13.67
2023-02-13T07:17:33.818Z,13.47
2023-02-13T07:20:00.819Z,19.67
2023-02-13T07:22:27.572Z,13.30
2023-02-13T07:24:54.222Z,13.97
2023-02-13T07:27:20.929Z,11.70
2023-02-13T07:29:47.897Z,14.30
2023-02-13T07:32:15.007Z,14.37
2023-02-13T07:34:55.819Z,13.80
2023-02-13T07:37:28.595Z,12.57
2023-02-13T07:39:55.302Z,12.40
2023-02-13T07:42:22.000Z,12.20
2023-02-13T07:44:48.718Z,11.97
2023-02-13T07:47:15.387Z,11.77
2023-02-13T07:49:42.026Z,11.80
2023-02-13T07:52:08.726Z,11.80
2023-02-13T07:54:37.058Z,11.90
2023-02-13T07:57:04.467Z,12.83
2023-02-13T07:59:31.196Z,12.47
2023-02-13T08:01:58.334Z,12.43
2023-02-13T08:04:26.384Z,12.37
2023-02-13T08:06:53.131Z,12.10
2023-02-13T08:09:40.922Z,11.70
2023-02-13T08:12:10.473Z,12.10
2023-02-13T08:14:37.196Z,12.37
2023-02-13T08:17:04.100Z,11.83
2023-02-13T08:19:31.028Z,11.03
2023-02-13T08:21:58.262Z,11.70
2023-02-13T08:24:25.037Z,12.43
2023-02-13T08:26:51.701Z,11.93
2023-02-13T08:29:18.741Z,10.97
2023-02-13T08:31:45.847Z,12.10
2023-02-13T08:34:12.593Z,10.83
2023-02-13T08:36:39.295Z,11.20
2023-02-13T08:39:05.934Z,11.20
2023-02-13T08:41:33.412Z,10.40
2023-02-13T08:44:00.026Z,9.57
2023-02-13T08:46:27.737Z,9.73
2023-02-13T08:48:54.962Z,10.87
2023-02-13T08:51:21.704Z,9.73
2023-02-13T08:53:48.418Z,8.70
2023-02-13T08:56:15.127Z,7.57
2023-02-13T08:58:41.793Z,8.37
2023-02-13T09:01:09.346Z,8.80
2023-02-13T09:03:36.575Z,9.57
2023-02-13T09:06:04.007Z,8.43
2023-02-13T09:08:31.020Z,8.10
2023-02-13T09:11:01.210Z,8.00
2023-02-13T09:13:35.332Z,7.93
2023-02-13T09:16:05.858Z,7.90
2023-02-13T09:18:33.047Z,7.27
2023-02-13T09:21:02.036Z,7.37
2023-02-13T09:23:32.118Z,7.60
2023-02-13T09:26:01.060Z,7.60
2023-02-13T09:28:29.629Z,7.97
2023-02-13T09:30:56.633Z,8.30
2023-02-13T09:33:23.924Z,7.90
2023-02-13T09:35:50.768Z,7.77
2023-02-13T09:38:17.828Z,7.57
2023-02-13T09:40:50.470Z,7.87
2023-02-13T09:43:40.822Z,6.43
2023-02-13T09:46:16.757Z,7.70
2023-02-13T09:48:48.493Z,7.70
2023-02-13T09:51:19.174Z,6.40
2023-02-13T09:54:00.123Z,7.65
2023-02-13T09:56:54.849Z,7.07
2023-02-13T10:00:02.508Z,6.83
2023-02-13T10:02:47.561Z,7.03
2023-02-13T10:05:38.457Z,6.53
2023-02-13T10:08:53.870Z,7.00
2023-02-13T10:11:26.725Z,6.70
2023-02-13T10:14:27.020Z,8.17
2023-02-13T10:17:21.003Z,7.67
2023-02-13T10:19:55.032Z,7.33
2023-02-13T10:22:35.733Z,7.20
2023-02-13T10:25:08.315Z,6.90
2023-02-13T10:27:39.108Z,6.57
2023-02-13T10:30:25.880Z,7.70
2023-02-13T10:33:17.823Z,7.67
2023-02-13T10:35:56.476Z,6.47
2023-02-13T10:38:24.716Z,6.30
2023-02-13T10:41:41.454Z,7.70
2023-02-13T10:44:27.340Z,6.93
2023-02-13T10:47:31.958Z,7.70
2023-02-13T10:50:11.818Z,7.03
2023-02-13T10:53:00.210Z,6.97
2023-02-13T10:55:53.539Z,7.33
2023-02-13T10:58:42.964Z,6.90
2023-02-13T11:01:34.784Z,7.10
2023-02-13T11:04:13.042Z,6.40
2023-02-13T11:06:50.712Z,7.33
2023-02-13T11:09:18.006Z,7.10
2023-02-13T11:11:44.933Z,6.43
2023-02-13T11:14:24.286Z,6.43
2023-02-13T11:17:05.216Z,6.70
2023-02-13T11:19:39.937Z,6.80
2023-02-13T11:22:16.001Z,6.70
2023-02-13T11:24:53.109Z,7.20
2023-02-13T11:27:28.146Z,7.17
2023-02-13T11:30:02.126Z,6.90
2023-02-13T11:32:33.754Z,7.37
2023-02-13T11:35:27.339Z,6.97
2023-02-13T11:38:12.136Z,6.70
2023-02-13T11:40:38.884Z,6.10
2023-02-13T11:43:07.254Z,6.47
2023-02-13T11:45:34.518Z,4.83
2023-02-13T11:48:08.214Z,6.37
2023-02-13T11:50:36.103Z,5.77
2023-02-13T11:53:06.232Z,5.10
2023-02-13T11:55:34.397Z,5.63
2023-02-13T11:58:04.250Z,5.07
2023-02-13T12:00:39.975Z,4.80
2023-02-13T12:03:27.231Z,5.80
2023-02-13T12:06:12.860Z,6.00
2023-02-13T12:08:42.496Z,5.70
2023-02-13T12:11:30.888Z,4.70
2023-02-13T12:13:58.020Z,5.23
2023-02-13T12:16:40.582Z,5.07
2023-02-13T12:19:13.421Z,4.50
2023-02-13T12:22:06.958Z,5.20
2023-02-13T12:24:48.843Z,4.40
2023-02-13T12:27:43.684Z,4.30
2023-02-13T12:30:38.180Z,3.87
2023-02-13T12:33:32.883Z,4.07
2023-02-13T12:36:18.828Z,4.30
2023-02-13T12:39:02.094Z,4.07
2023-02-13T12:41:53.068Z,4.20
2023-02-13T12:44:45.928Z,4.17
2023-02-13T12:47:21.744Z,3.97
2023-02-13T12:50:00.414Z,3.97
2023-02-13T12:52:49.888Z,4.60
2023-02-13T12:55:28.111Z,4.50
2023-02-13T12:58:29.468Z,4.00
2023-02-13T13:01:15.426Z,4.83
2023-02-13T13:03:54.102Z,4.30
2023-02-13T13:06:20.706Z,4.20
2023-02-13T13:09:13.594Z,4.47
2023-02-13T13:12:00.831Z,4.70
2023-02-13T13:14:39.629Z,3.70
2023-02-13T13:17:37.166Z,6.80
2023-02-13T13:20:41.285Z,4.23
2023-02-13T13:23:30.683Z,4.30
2023-02-13T13:26:18.540Z,4.27
2023-02-13T13:28:49.434Z,3.43
2023-02-13T13:31:16.632Z,4.10
2023-02-13T13:33:45.793Z,3.87
2023-02-13T13:36:36.800Z,3.90
2023-02-13T13:39:22.168Z,3.93
2023-02-13T13:42:00.808Z,3.30
2023-02-13T13:44:45.525Z,3.30
2023-02-13T13:47:26.673Z,3.50
2023-02-13T13:49:59.553Z,3.80
2023-02-13T13:52:39.520Z,3.40
2023-02-13T13:55:26.930Z,3.57
2023-02-13T13:58:00.611Z,2.37
2023-02-13T14:00:29.891Z,2.30
2023-02-13T14:02:59.524Z,3.00
2023-02-13T14:05:29.076Z,3.30
2023-02-13T14:07:57.399Z,3.27
2023-02-13T14:10:26.841Z,2.47
2023-02-13T14:12:56.283Z,2.57
2023-02-13T14:15:50.751Z,2.83
2023-02-13T14:18:22.515Z,2.80
2023-02-13T14:20:51.925Z,2.37
2023-02-13T14:23:36.729Z,2.10
2023-02-13T14:26:15.253Z,1.73
2023-02-13T14:28:50.975Z,1.80
2023-02-13T14:31:28.513Z,2.03
2023-02-13T14:34:05.658Z,1.90
2023-02-13T14:36:35.314Z,1.87
2023-02-13T14:39:05.118Z,2.23
2023-02-13T14:41:49.117Z,2.23
2023-02-13T14:44:35.444Z,1.60
2023-02-13T14:47:22.360Z,1.30
2023-02-13T14:49:51.178Z,1.80
2023-02-13T14:52:28.848Z,1.10
2023-02-13T14:55:14.220Z,1.50
2023-02-13T14:57:45.506Z,1.40
2023-02-13T15:00:28.335Z,1.30
2023-02-13T15:03:23.685Z,1.40
2023-02-13T15:05:54.066Z,1.30
2023-02-13T15:08:34.352Z,1.10
2023-02-13T15:11:01.411Z,4.47
2023-02-13T15:13:37.295Z,2.07
2023-02-13T15:16:08.517Z,2.00
2023-02-13T15:18:45.470Z,1.80
2023-02-13T15:21:18.381Z,1.87
2023-02-13T15:23:50.145Z,1.63
2023-02-13T15:26:23.624Z,4.00
2023-02-13T15:28:59.812Z,1.33
2023-02-13T15:31:33.292Z,2.40
2023-02-13T15:34:01.213Z,1.53
2023-02-13T15:36:36.141Z,1.43
2023-02-13T15:39:09.546Z,2.10
2023-02-13T15:41:40.722Z,2.00
2023-02-13T15:44:07.972Z,1.60
2023-02-13T15:46:38.551Z,1.80
2023-02-13T15:49:08.730Z,1.83
2023-02-13T15:51:36.307Z,1.13
2023-02-13T15:54:19.426Z,1.77
2023-02-13T15:56:47.325Z,1.43
2023-02-13T15:59:15.017Z,1.47
2023-02-13T16:01:44.476Z,1.30
2023-02-13T16:04:15.385Z,1.07
2023-02-13T16:06:43.502Z,1.30
2023-02-13T16:09:35.506Z,1.50
2023-02-13T16:12:24.469Z,1.20
2023-02-13T16:14:56.261Z,1.33
2023-02-13T16:17:30.082Z,1.43
2023-02-13T16:20:11.137Z,3.00
2023-02-13T16:22:40.758Z,1.20
2023-02-13T16:25:14.022Z,2.80
2023-02-13T16:27:54.124Z,1.77
2023-02-13T16:30:33.816Z,1.13
2023-02-13T16:33:27.409Z,1.83
2023-02-13T16:36:00.033Z,1.50
2023-02-13T16:38:43.413Z,1.57
2023-02-13T16:41:19.282Z,1.70
2023-02-13T16:43:51.704Z,1.50
2023-02-13T16:46:39.558Z,1.30
2023-02-13T16:49:09.156Z,2.03
2023-02-13T16:51:45.148Z,1.80
2023-02-13T16:54:11.795Z,1.20
2023-02-13T16:56:47.246Z,1.60
2023-02-13T16:59:33.912Z,1.30
2023-02-13T17:02:21.392Z,0.97
2023-02-13T17:04:52.737Z,1.20
2023-02-13T17:07:29.404Z,1.53
2023-02-13T17:10:01.622Z,1.73
2023-02-13T17:12:31.895Z,1.90
2023-02-13T17:14:59.732Z,1.40
2023-02-13T17:17:30.006Z,1.53
2023-02-13T17:19:57.304Z,2.03
2023-02-13T17:22:43.213Z,2.50
2023-02-13T17:25:21.835Z,1.97
2023-02-13T17:27:50.577Z,2.73
2023-02-13T17:30:23.086Z,2.43
2023-02-13T17:32:52.244Z,2.80
2023-02-13T17:35:19.373Z,2.80
2023-02-13T17:37:46.077Z,2.43
2023-02-13T17:40:21.508Z,2.20
2023-02-13T17:42:52.431Z,2.70
2023-02-13T17:45:21.994Z,2.20
2023-02-13T17:47:48.678Z,2.07
2023-02-13T17:50:17.286Z,2.77
2023-02-13T17:52:45.562Z,2.70
2023-02-13T17:55:18.816Z,2.80
2023-02-13T17:57:45.624Z,4.63
2023-02-13T18:00:12.610Z,4.00
2023-02-13T18:02:39.486Z,3.93
2023-02-13T18:05:06.941Z,4.40
2023-02-13T18:07:33.567Z,3.80
2023-02-13T18:10:00.225Z,5.07
2023-02-13T18:12:27.010Z,3.73
2023-02-13T18:14:54.052Z,3.20
2023-02-13T18:17:21.288Z,4.20
2023-02-13T18:19:48.050Z,3.70
2023-02-13T18:22:14.919Z,3.43
2023-02-13T18:24:42.844Z,3.37
2023-02-13T18:27:12.188Z,3.60
2023-02-13T18:29:39.155Z,3.63
2023-02-13T18:32:10.101Z,3.80
2023-02-13T18:34:38.743Z,3.93
2023-02-13T18:37:06.401Z,3.67
2023-02-13T18:39:33.363Z,3.40
2023-02-13T18:42:00.912Z,3.67
2023-02-13T18:44:28.845Z,4.07
2023-02-13T18:46:56.223Z,4.00
2023-02-13T18:49:22.931Z,4.17
2023-02-13T18:51:49.905Z,4.43
2023-02-13T18:54:17.995Z,3.97
2023-02-13T18:56:45.886Z,4.60
2023-02-13T18:59:12.938Z,4.40
2023-02-13T19:01:39.848Z,3.57
2023-02-13T19:04:06.978Z,4.03
2023-02-13T19:06:33.915Z,3.63
2023-02-13T19:09:01.188Z,4.23
2023-02-13T19:11:27.996Z,3.80
2023-02-13T19:13:58.540Z,3.70
2023-02-13T19:16:25.916Z,4.10
2023-02-13T19:18:55.622Z,3.73
2023-02-13T19:21:25.054Z,7.37
2023-02-13T19:23:52.115Z,4.23
2023-02-13T19:26:21.352Z,3.90
2023-02-13T19:28:48.514Z,3.97
2023-02-13T19:31:24.704Z,4.20
2023-02-13T19:33:52.481Z,3.60
2023-02-13T19:36:21.680Z,4.30
2023-02-13T19:38:52.719Z,4.23
2023-02-13T19:41:19.347Z,4.73
2023-02-13T19:43:50.718Z,3.97
2023-02-13T19:46:19.918Z,4.10
2023-02-13T19:48:46.998Z,4.17
2023-02-13T19:51:15.537Z,3.90
2023-02-13T19:53:42.637Z,4.57
2023-02-13T19:56:10.191Z,5.80
2023-02-13T19:58:38.514Z,5.43
2023-02-13T20:01:10.882Z,4.87
2023-02-13T20:03:37.891Z,5.47
2023-02-13T20:06:10.853Z,5.00
2023-02-13T20:08:38.228Z,5.17
2023-02-13T20:11:10.242Z,4.90
2023-02-13T20:13:37.310Z,5.07
2023-02-13T20:16:05.574Z,5.70
2023-02-13T20:18:33.777Z,5.83
2023-02-13T20:21:01.144Z,5.47
2023-02-13T20:23:28.234Z,5.50
2023-02-13T20:25:55.298Z,6.13
2023-02-13T20:28:22.015Z,5.20
2023-02-13T20:30:48.888Z,5.67
2023-02-13T20:33:15.588Z,6.50
2023-02-13T20:35:42.228Z,6.07
2023-02-13T20:38:09.005Z,5.40
2023-02-13T20:40:36.337Z,5.20
2023-02-13T20:43:02.973Z,5.33
2023-02-13T20:45:29.659Z,5.93
2023-02-13T20:47:56.547Z,5.60
2023-02-13T20:50:23.336Z,6.23
2023-02-13T20:52:49.973Z,6.70
2023-02-13T20:55:16.756Z,6.03
2023-02-13T20:57:43.448Z,5.40
2023-02-13T21:00:13.186Z,5.17
2023-02-13T21:02:40.239Z,4.90
2023-02-13T21:05:07.281Z,6.00
2023-02-13T21:07:33.969Z,5.40
2023-02-13T21:10:00.662Z,5.47
2023-02-13T21:12:27.475Z,5.30
2023-02-13T21:14:54.160Z,5.43
2023-02-13T21:17:20.813Z,5.93
2023-02-13T21:19:47.528Z,5.60
2023-02-13T21:22:14.296Z,5.93
2023-02-13T21:24:42.740Z,5.23
2023-02-13T21:27:10.516Z,5.20
2023-02-13T21:29:38.151Z,6.20
2023-02-13T21:32:05.086Z,5.70
2023-02-13T21:34:31.889Z,6.10
2023-02-13T21:36:58.571Z,6.43
2023-02-13T21:39:25.448Z,5.70
2023-02-13T21:41:52.153Z,5.70
2023-02-13T21:44:18.892Z,6.33
2023-02-13T21:46:45.676Z,5.37
2023-02-13T21:49:18.332Z,5.23
2023-02-13T21:51:45.904Z,6.17
2023-02-13T21:54:13.936Z,6.27
2023-02-13T21:56:42.219Z,5.73
2023-02-13T21:59:10.164Z,6.43
2023-02-13T22:01:47.427Z,5.37
2023-02-13T22:04:14.648Z,5.20
2023-02-13T22:06:41.569Z,5.37
2023-02-13T22:09:13.923Z,6.33
2023-02-13T22:11:41.310Z,5.93
2023-02-13T22:14:12.442Z,5.67
2023-02-13T22:16:39.915Z,6.17
2023-02-13T22:19:07.237Z,5.70
2023-02-13T22:21:35.521Z,5.97
2023-02-13T22:24:02.301Z,5.17
2023-02-13T22:26:34.671Z,5.67
2023-02-13T22:29:08.082Z,5.67
2023-02-13T22:31:35.909Z,5.53
2023-02-13T22:34:05.006Z,6.63
2023-02-13T22:36:35.092Z,6.07
2023-02-13T22:39:02.194Z,5.77
2023-02-13T22:41:29.542Z,6.03
2023-02-13T22:43:56.640Z,5.93
2023-02-13T22:46:29.889Z,6.37
2023-02-13T22:48:57.567Z,5.33
2023-02-13T22:51:35.105Z,5.93
2023-02-13T22:54:02.357Z,6.27
2023-02-13T22:56:30.659Z,6.30
2023-02-13T22:58:57.804Z,5.97
2023-02-13T23:01:26.947Z,6.37
2023-02-13T23:03:54.374Z,7.87
2023-02-13T23:06:21.877Z,7.03
2023-02-13T23:08:52.217Z,6.50
2023-02-13T23:11:39.140Z,6.40
2023-02-13T23:14:05.840Z,6.37
2023-02-13T23:16:50.988Z,6.90
2023-02-13T23:19:17.758Z,7.07
2023-02-13T23:21:44.531Z,6.63
2023-02-13T23:24:11.271Z,7.63
2023-02-13T23:26:38.521Z,7.03
2023-02-13T23:29:05.199Z,7.90
2023-02-13T23:31:31.991Z,7.83
2023-02-13T23:33:58.749Z,7.73
2023-02-13T23:36:25.495Z,7.40
2023-02-13T23:38:52.147Z,8.07
2023-02-13T23:41:19.061Z,8.50
2023-02-13T23:43:45.714Z,8.67
2023-02-13T23:46:12.395Z,7.50
2023-02-13T23:48:39.126Z,8.57
2023-02-13T23:51:05.900Z,8.37
2023-02-13T23:53:35.656Z,7.80
2023-02-13T23:56:02.923Z,9.10
2023-02-13T23:58:30.510Z,8.53
